Map

Track Data

SID SEASON NUMBER BASIN SUBBASIN NAME ISO_TIME NATURE LAT LON WMO_WIND WMO_PRES WMO_AGENCY TRACK_TYPE DIST2LAND LANDFALL IFLAG USA_AGENCY USA_ATCF_ID USA_LAT USA_LON USA_RECORD USA_STATUS USA_WIND USA_PRES USA_SSHS USA_R34_NE USA_R34_SE USA_R34_SW USA_R34_NW USA_R50_NE USA_R50_SE USA_R50_SW USA_R50_NW USA_R64_NE USA_R64_SE USA_R64_SW USA_R64_NW USA_POCI USA_ROCI USA_RMW USA_EYE TOKYO_LAT TOKYO_LON TOKYO_GRADE TOKYO_WIND TOKYO_PRES TOKYO_R50_DIR TOKYO_R50_LONG TOKYO_R50_SHORT TOKYO_R30_DIR TOKYO_R30_LONG TOKYO_R30_SHORT TOKYO_LAND CMA_LAT CMA_LON CMA_CAT CMA_WIND CMA_PRES HKO_LAT HKO_LON HKO_CAT HKO_WIND HKO_PRES NEWDELHI_LAT NEWDELHI_LON NEWDELHI_GRADE NEWDELHI_WIND NEWDELHI_PRES NEWDELHI_CI NEWDELHI_DP NEWDELHI_POCI REUNION_LAT REUNION_LON REUNION_TYPE REUNION_WIND REUNION_PRES REUNION_TNUM REUNION_CI REUNION_RMW REUNION_R34_NE REUNION_R34_SE REUNION_R34_SW REUNION_R34_NW REUNION_R50_NE REUNION_R50_SE REUNION_R50_SW REUNION_R50_NW REUNION_R64_NE REUNION_R64_SE REUNION_R64_SW REUNION_R64_NW BOM_LAT BOM_LON BOM_TYPE BOM_WIND BOM_PRES BOM_TNUM BOM_CI BOM_RMW BOM_R34_NE BOM_R34_SE BOM_R34_SW BOM_R34_NW BOM_R50_NE BOM_R50_SE BOM_R50_SW BOM_R50_NW BOM_R64_NE BOM_R64_SE BOM_R64_SW BOM_R64_NW BOM_ROCI BOM_POCI BOM_EYE BOM_POS_METHOD BOM_PRES_METHOD NADI_LAT NADI_LON NADI_CAT NADI_WIND NADI_PRES WELLINGTON_LAT WELLINGTON_LON WELLINGTON_WIND WELLINGTON_PRES DS824_LAT DS824_LON DS824_STAGE DS824_WIND DS824_PRES TD9636_LAT TD9636_LON TD9636_STAGE TD9636_WIND TD9636_PRES TD9635_LAT TD9635_LON TD9635_WIND TD9635_PRES TD9635_ROCI NEUMANN_LAT NEUMANN_LON NEUMANN_CLASS NEUMANN_WIND NEUMANN_PRES MLC_LAT MLC_LON MLC_CLASS MLC_WIND MLC_PRES USA_GUST BOM_GUST BOM_GUST_PER REUNION_GUST REUNION_GUST_PER USA_SEAHGT USA_SEARAD_NE USA_SEARAD_SE USA_SEARAD_SW USA_SEARAD_NW STORM_SPEED STORM_DIR
1934355S07072 1935 88 SI MM NOT_NAMED 1934-12-21 06:00:00 NR -7.40000 72.0000 reunion main 1761 1761 _____O________ -1 -7.40000 72.0000 99 9.90000 3 216
1934355S07072 1935 88 SI MM NOT_NAMED 1934-12-21 09:00:00 NR -7.53505 71.8999 main 1777 1777 _____P________ -1 -7.53505 71.8999 99 3 216
1934355S07072 1935 88 SI MM NOT_NAMED 1934-12-21 12:00:00 NR -7.67033 71.7986 main 1802 1802 _____P________ -1 -7.67033 71.7986 99 3 217
1934355S07072 1935 88 SI MM NOT_NAMED 1934-12-21 15:00:00 NR -7.80607 71.6950 main 1817 1817 _____P________ -1 -7.80607 71.6950 99 3 217
1934355S07072 1935 88 SI MM NOT_NAMED 1934-12-21 18:00:00 NR -7.94250 71.5877 main 1832 1832 _____P________ -1 -7.94250 71.5877 99 4 218
1934355S07072 1935 88 SI MM NOT_NAMED 1934-12-21 21:00:00 NR -8.07988 71.4758 main 1857 1857 _____P________ -1 -8.07988 71.4758 99 4 220
1934355S07072 1935 88 SI MM NOT_NAMED 1934-12-22 00:00:00 NR -8.21843 71.3580 main 1872 1872 _____P________ -1 -8.21843 71.3580 99 4 221
1934355S07072 1935 88 SI MM NOT_NAMED 1934-12-22 03:00:00 NR -8.35839 71.2331 main 1903 1903 _____P________ -1 -8.35839 71.2331 99 4 222
1934355S07072 1935 88 SI MM NOT_NAMED 1934-12-22 06:00:00 NR -8.50000 71.1000 reunion main 1918 1918 _____O________ -1 -8.50000 71.1000 99 9.90000 4 224
1934355S07072 1935 88 SI MM NOT_NAMED 1934-12-22 09:00:00 NR -8.64364 70.9579 main 1924 1892 _____P________ -1 -8.64364 70.9579 99 4 225
1934355S07072 1935 88 SI MM NOT_NAMED 1934-12-22 12:00:00 NR -8.79033 70.8076 main 1892 1877 _____P________ -1 -8.79033 70.8076 99 4 226
1934355S07072 1935 88 SI MM NOT_NAMED 1934-12-22 15:00:00 NR -8.94123 70.6503 main 1877 1845 _____P________ -1 -8.94123 70.6503 99 4 226
1934355S07072 1935 88 SI MM NOT_NAMED 1934-12-22 18:00:00 NR -9.09752 70.4871 main 1845 1814 _____P________ -1 -9.09752 70.4871 99 5 226
1934355S07072 1935 88 SI MM NOT_NAMED 1934-12-22 21:00:00 NR -9.26036 70.3193 main 1814 1798 _____P________ -1 -9.26036 70.3193 99 5 225
1934355S07072 1935 88 SI MM NOT_NAMED 1934-12-23 00:00:00 NR -9.43093 70.1481 main 1790 1767 _____P________ -1 -9.43093 70.1481 99 5 224
1934355S07072 1935 88 SI MM NOT_NAMED 1934-12-23 03:00:00 NR -9.61042 69.9746 main 1767 1736 _____P________ -1 -9.61042 69.9746 99 5 223
1934355S07072 1935 88 SI MM NOT_NAMED 1934-12-23 06:00:00 NR -9.80000 69.8000 reunion main 1736 1712 _____O________ -1 -9.80000 69.8000 99 9.90000 5 221
1934355S07072 1935 88 SI MM NOT_NAMED 1934-12-23 09:00:00 NR -9.97668 69.6519 main 1712 1681 _____P________ -1 -9.97668 69.6519 99 5 219
1934355S07072 1935 88 SI MM NOT_NAMED 1934-12-23 12:00:00 NR -10.1609 69.5044 main 1681 1666 _____P________ -1 -10.1609 69.5044 99 5 218
1934355S07072 1935 88 SI MM NOT_NAMED 1934-12-23 15:00:00 NR -10.3557 69.3535 main 1658 1627 _____P________ -1 -10.3557 69.3535 99 5 217
1934355S07072 1935 88 SI MM NOT_NAMED 1934-12-23 18:00:00 NR -10.5643 69.1949 main 1627 1595 _____P________ -1 -10.5643 69.1949 99 5 217
1934355S07072 1935 88 SI MM NOT_NAMED 1934-12-23 21:00:00 NR -10.7899 69.0245 main 1595 1564 _____P________ -1 -10.7899 69.0245 99 6 217
1934355S07072 1935 88 SI MM NOT_NAMED 1934-12-24 00:00:00 NR -11.0356 68.8381 main 1564 1526 _____P________ -1 -11.0356 68.8381 99 6 217
1934355S07072 1935 88 SI MM NOT_NAMED 1934-12-24 03:00:00 NR -11.3046 68.6314 main 1526 1487 _____P________ -1 -11.3046 68.6314 99 7 217
1934355S07072 1935 88 SI MM NOT_NAMED 1934-12-24 06:00:00 NR -11.6000 68.4000 reunion main 1487 1440 _____O________ -1 -11.6000 68.4000 99 9.90000 8 219
1934355S07072 1935 88 SI MM NOT_NAMED 1934-12-24 09:00:00 NR -11.9390 68.1165 main 1440 1386 _____P________ -1 -11.9390 68.1165 99 9 219
1934355S07072 1935 88 SI MM NOT_NAMED 1934-12-24 12:00:00 NR -12.3068 67.8056 main 1386 1333 _____P________ -1 -12.3068 67.8056 99 10 220
1934355S07072 1935 88 SI MM NOT_NAMED 1934-12-24 15:00:00 NR -12.6960 67.4751 main 1333 1279 _____P________ -1 -12.6960 67.4751 99 10 220
1934355S07072 1935 88 SI MM NOT_NAMED 1934-12-24 18:00:00 NR -13.0989 67.1326 main 1271 1217 _____P________ -1 -13.0989 67.1326 99 11 220
1934355S07072 1935 88 SI MM NOT_NAMED 1934-12-24 21:00:00 NR -13.5082 66.7859 main 1217 1164 _____P________ -1 -13.5082 66.7859 99 11 219
1934355S07072 1935 88 SI MM NOT_NAMED 1934-12-25 00:00:00 NR -13.9164 66.4429 main 1156 1103 _____P________ -1 -13.9164 66.4429 99 10 219
1934355S07072 1935 88 SI MM NOT_NAMED 1934-12-25 03:00:00 NR -14.3161 66.1116 main 1103 1050 _____P________ -1 -14.3161 66.1116 99 10 218
1934355S07072 1935 88 SI MM NOT_NAMED 1934-12-25 06:00:00 NR -14.7000 65.8000 reunion main 1050 1013 _____O________ -1 -14.7000 65.8000 99 9.90000 9 218
1934355S07072 1935 88 SI MM NOT_NAMED 1934-12-25 09:00:00 NR -15.0283 65.5402 main 1004 967 _____P________ -1 -15.0283 65.5402 99 8 217
1934355S07072 1935 88 SI MM NOT_NAMED 1934-12-25 12:00:00 NR -15.3426 65.2980 main 967 930 _____P________ -1 -15.3426 65.2980 99 8 216
1934355S07072 1935 88 SI MM NOT_NAMED 1934-12-25 15:00:00 NR -15.6478 65.0696 main 930 894 _____P________ -1 -15.6478 65.0696 99 7 215
1934355S07072 1935 88 SI MM NOT_NAMED 1934-12-25 18:00:00 NR -15.9485 64.8513 main 894 858 _____P________ -1 -15.9485 64.8513 99 7 214
1934355S07072 1935 88 SI MM NOT_NAMED 1934-12-25 21:00:00 NR -16.2494 64.6391 main 849 813 _____P________ -1 -16.2494 64.6391 99 7 214
1934355S07072 1935 88 SI MM NOT_NAMED 1934-12-26 00:00:00 NR -16.5552 64.4291 main 808 773 _____P________ -1 -16.5552 64.4291 99 7 213
1934355S07072 1935 88 SI MM NOT_NAMED 1934-12-26 03:00:00 NR -16.8705 64.2174 main 773 738 _____P________ -1 -16.8705 64.2174 99 8 213
1934355S07072 1935 88 SI MM NOT_NAMED 1934-12-26 06:00:00 NR -17.2000 64.0000 reunion main 738 690 _____O________ -1 -17.2000 64.0000 99 9.90000 8 214
1934355S07072 1935 88 SI MM NOT_NAMED 1934-12-26 09:00:00 NR -17.5714 63.7242 main 690 656 _____P________ -1 -17.5714 63.7242 99 9 215
1934355S07072 1935 88 SI MM NOT_NAMED 1934-12-26 12:00:00 NR -17.9570 63.4397 main 641 609 _____P________ -1 -17.9570 63.4397 99 10 215
1934355S07072 1935 88 SI MM NOT_NAMED 1934-12-26 15:00:00 NR -18.3518 63.1545 main 605 563 _____P________ -1 -18.3518 63.1545 99 10 214
1934355S07072 1935 88 SI MM NOT_NAMED 1934-12-26 18:00:00 NR -18.7512 62.8764 main 560 520 _____P________ -1 -18.7512 62.8764 99 10 213
1934355S07072 1935 88 SI MM NOT_NAMED 1934-12-26 21:00:00 NR -19.1504 62.6137 main 517 489 _____P________ -1 -19.1504 62.6137 99 9 211
1934355S07072 1935 88 SI MM NOT_NAMED 1934-12-27 00:00:00 NR -19.5446 62.3745 main 489 461 _____P________ -1 -19.5446 62.3745 99 9 208
1934355S07072 1935 88 SI MM NOT_NAMED 1934-12-27 03:00:00 NR -19.9294 62.1671 main 461 437 _____P________ -1 -19.9294 62.1671 99 8 205
1934355S07072 1935 88 SI MM NOT_NAMED 1934-12-27 06:00:00 NR -20.3000 62.0000 reunion main 437 427 _____O________ -1 -20.3000 62.0000 99 9.90000 8 201
1934355S07072 1935 88 SI MM NOT_NAMED 1934-12-27 09:00:00 NR -20.6473 61.8751 main 428 418 _____P________ -1 -20.6473 61.8751 99 7 196
1934355S07072 1935 88 SI MM NOT_NAMED 1934-12-27 12:00:00 NR -20.9831 61.7879 main 423 417 _____P________ -1 -20.9831 61.7879 99 7 191
1934355S07072 1935 88 SI MM NOT_NAMED 1934-12-27 15:00:00 NR -21.3082 61.7358 main 420 420 _____P________ -1 -21.3082 61.7358 99 6 186
1934355S07072 1935 88 SI MM NOT_NAMED 1934-12-27 18:00:00 NR -21.6234 61.7157 main 430 430 _____P________ -1 -21.6234 61.7157 99 6 182
1934355S07072 1935 88 SI MM NOT_NAMED 1934-12-27 21:00:00 NR -21.9295 61.7251 main 442 442 _____P________ -1 -21.9295 61.7251 99 6 176
1934355S07072 1935 88 SI MM NOT_NAMED 1934-12-28 00:00:00 NR -22.2271 61.7608 main 465 465 _____P________ -1 -22.2271 61.7608 99 6 171
1934355S07072 1935 88 SI MM NOT_NAMED 1934-12-28 03:00:00 NR -22.5171 61.8201 main 479 479 _____P________ -1 -22.5171 61.8201 99 6 167
1934355S07072 1935 88 SI MM NOT_NAMED 1934-12-28 06:00:00 NR -22.8000 61.9000 reunion main 504 504 _____O________ -1 -22.8000 61.9000 99 9.90000 6 165
1934355S07072 1935 88 SI MM NOT_NAMED 1934-12-28 09:00:00 NR -23.1042 61.9864 main 530 530 _____P________ -1 -23.1042 61.9864 99 6 163
1934355S07072 1935 88 SI MM NOT_NAMED 1934-12-28 12:00:00 NR -23.4028 62.0989 main 557 557 _____P________ -1 -23.4028 62.0989 99 6 159
1934355S07072 1935 88 SI MM NOT_NAMED 1934-12-28 15:00:00 NR -23.6926 62.2320 main 585 585 _____P________ -1 -23.6926 62.2320 99 6 156
1934355S07072 1935 88 SI MM NOT_NAMED 1934-12-28 18:00:00 NR -23.9705 62.3798 main 621 621 _____P________ -1 -23.9705 62.3798 99 6 153
1934355S07072 1935 88 SI MM NOT_NAMED 1934-12-28 21:00:00 NR -24.2333 62.5364 main 643 643 _____P________ -1 -24.2333 62.5364 99 6 151
1934355S07072 1935 88 SI MM NOT_NAMED 1934-12-29 00:00:00 NR -24.4779 62.6960 main 680 680 _____P________ -1 -24.4779 62.6960 99 6 148
1934355S07072 1935 88 SI MM NOT_NAMED 1934-12-29 03:00:00 NR -24.7011 62.8526 main 710 710 _____P________ -1 -24.7011 62.8526 99 5 147
1934355S07072 1935 88 SI MM NOT_NAMED 1934-12-29 06:00:00 NR -24.9000 63.0000 reunion main 732 732 _____O________ -1 -24.9000 63.0000 99 9.90000 5 145
1934355S07072 1935 88 SI MM NOT_NAMED 1934-12-29 09:00:00 NR -25.0725 63.1336 main 755 755 _____P________ -1 -25.0725 63.1336 99 4 144
1934355S07072 1935 88 SI MM NOT_NAMED 1934-12-29 12:00:00 NR -25.2209 63.2538 main 777 777 _____P________ -1 -25.2209 63.2538 99 3 143
1934355S07072 1935 88 SI MM NOT_NAMED 1934-12-29 15:00:00 NR -25.3489 63.3625 main 792 792 _____P________ -1 -25.3489 63.3625 99 3 142
1934355S07072 1935 88 SI MM NOT_NAMED 1934-12-29 18:00:00 NR -25.4596 63.4616 main 814 814 _____P________ -1 -25.4596 63.4616 99 3 140
1934355S07072 1935 88 SI MM NOT_NAMED 1934-12-29 21:00:00 NR -25.5567 63.5529 main 829 829 _____P________ -1 -25.5567 63.5529 99 2 139
1934355S07072 1935 88 SI MM NOT_NAMED 1934-12-30 00:00:00 NR -25.6435 63.6384 main 829 829 _____P________ -1 -25.6435 63.6384 99 2 137
1934355S07072 1935 88 SI MM NOT_NAMED 1934-12-30 03:00:00 NR -25.7235 63.7202 main 844 844 _____P________ -1 -25.7235 63.7202 99 2 136
1934355S07072 1935 88 SI MM NOT_NAMED 1934-12-30 06:00:00 NR -25.8000 63.8000 reunion main 859 _____O________ -1 -25.8000 63.8000 99 9.90000 2 137

About IBTrACS Database

This database is a web-friendly format of International Best Track Archive for Climate Stewardship (IBTrACS), a global best track data archive curated by NOAA dating back to 1842.

Updated: 2021-11-26